createdAt,value
2022-08-27T00:00:33.459Z,98075.53
2022-08-27T00:03:00.135Z,98069.19
2022-08-27T00:05:26.726Z,98071.25
2022-08-27T00:07:54.006Z,98066.03
2022-08-27T00:10:25.162Z,98066.22
2022-08-27T00:12:52.191Z,98060.84
2022-08-27T00:15:19.751Z,98059.16
2022-08-27T00:17:47.465Z,98058.44
2022-08-27T00:20:17.464Z,98058.00
2022-08-27T00:22:44.438Z,98058.31
2022-08-27T00:25:12.409Z,98053.31
2022-08-27T00:27:39.289Z,98063.47
2022-08-27T00:30:11.206Z,98066.47
2022-08-27T00:32:38.901Z,98058.56
2022-08-27T00:35:06.190Z,98062.09
2022-08-27T00:37:33.864Z,98059.88
2022-08-27T00:40:01.153Z,98073.16
2022-08-27T00:42:27.847Z,98066.72
2022-08-27T00:44:59.366Z,98070.75
2022-08-27T00:47:29.959Z,98065.41
2022-08-27T00:50:02.513Z,98072.66
2022-08-27T00:52:36.761Z,98073.75
2022-08-27T00:55:08.057Z,98067.38
2022-08-27T00:57:38.904Z,98067.03
2022-08-27T01:00:09.639Z,98069.25
2022-08-27T01:02:36.368Z,98069.38
2022-08-27T01:05:07.445Z,98071.66
2022-08-27T01:07:37.822Z,98077.84
2022-08-27T01:10:07.489Z,98079.16
2022-08-27T01:12:34.959Z,98082.34
2022-08-27T01:15:07.383Z,98085.13
2022-08-27T01:17:38.869Z,98087.69
2022-08-27T01:20:12.556Z,98089.63
2022-08-27T01:22:53.789Z,98085.25
2022-08-27T01:25:21.854Z,98084.28
2022-08-27T01:27:48.557Z,98086.09
2022-08-27T01:30:18.502Z,98086.59
2022-08-27T01:32:46.053Z,98100.41
2022-08-27T01:35:14.548Z,98089.63
2022-08-27T01:37:44.172Z,98086.09
2022-08-27T01:40:13.464Z,98093.03
2022-08-27T01:42:44.358Z,98097.09
2022-08-27T01:45:24.732Z,98102.44
2022-08-27T01:47:51.774Z,98097.31
2022-08-27T01:50:26.164Z,98100.13
2022-08-27T01:52:53.417Z,98101.59
2022-08-27T01:55:22.762Z,98097.94
2022-08-27T01:57:49.736Z,98096.25
2022-08-27T02:00:23.893Z,98100.53
2022-08-27T02:02:50.744Z,98110.44
2022-08-27T02:05:18.243Z,98112.91
2022-08-27T02:07:45.512Z,98113.91
2022-08-27T02:10:16.090Z,98108.47
2022-08-27T02:12:42.764Z,98104.41
2022-08-27T02:15:09.685Z,98108.56
2022-08-27T02:17:36.438Z,98103.38
2022-08-27T02:20:06.984Z,98106.34
2022-08-27T02:22:33.472Z,98108.06
2022-08-27T02:25:00.130Z,98099.50
2022-08-27T02:27:26.774Z,98103.75
2022-08-27T02:29:53.330Z,98100.91
2022-08-27T02:32:31.147Z,98103.13
2022-08-27T02:34:59.572Z,98102.69
2022-08-27T02:37:26.769Z,98101.66
2022-08-27T02:39:53.717Z,98101.19
2022-08-27T02:42:20.544Z,98106.78
2022-08-27T02:44:47.362Z,98102.06
2022-08-27T02:47:14.562Z,98099.38
2022-08-27T02:49:41.338Z,98096.75
2022-08-27T02:52:08.145Z,98100.88
2022-08-27T02:54:35.017Z,98097.06
2022-08-27T02:57:02.415Z,98100.16
2022-08-27T02:59:29.023Z,98108.06
2022-08-27T03:01:55.805Z,98095.22
2022-08-27T03:04:23.028Z,98093.00
2022-08-27T03:06:50.161Z,98098.22
2022-08-27T03:09:16.701Z,98096.50
2022-08-27T03:11:43.398Z,98096.94
2022-08-27T03:14:10.087Z,98103.56
2022-08-27T03:16:37.867Z,98093.50
2022-08-27T03:19:07.995Z,98100.38
2022-08-27T03:21:35.810Z,98100.38
2022-08-27T03:24:09.188Z,98105.88
2022-08-27T03:26:38.257Z,98098.84
2022-08-27T03:29:04.871Z,98094.81
2022-08-27T03:31:31.711Z,98100.88
2022-08-27T03:34:03.101Z,98094.78
2022-08-27T03:36:31.551Z,98095.00
2022-08-27T03:38:58.611Z,98091.22
2022-08-27T03:41:39.907Z,98095.41
2022-08-27T03:44:21.795Z,98086.22
2022-08-27T03:46:49.300Z,98093.50
2022-08-27T03:49:20.712Z,98092.63
2022-08-27T03:51:49.804Z,98083.56
2022-08-27T03:54:16.556Z,98083.88
2022-08-27T03:56:43.666Z,98084.31
2022-08-27T03:59:10.323Z,98097.13
2022-08-27T04:01:37.014Z,98099.06
2022-08-27T04:04:03.987Z,98090.81
2022-08-27T04:06:30.567Z,98088.16
2022-08-27T04:08:57.239Z,98097.84
2022-08-27T04:11:24.344Z,98089.66
2022-08-27T04:13:51.466Z,98095.59
2022-08-27T04:16:18.333Z,98092.88
2022-08-27T04:18:45.057Z,98097.66
2022-08-27T04:21:14.058Z,98096.47
2022-08-27T04:23:42.320Z,98102.16
2022-08-27T04:26:11.130Z,98099.25
2022-08-27T04:28:38.926Z,98108.66
2022-08-27T04:31:06.827Z,98096.72
2022-08-27T04:33:34.832Z,98099.16
2022-08-27T04:36:07.375Z,98100.97
2022-08-27T04:38:34.728Z,98105.22
2022-08-27T04:41:23.311Z,98105.03
2022-08-27T04:43:52.583Z,98102.69
2022-08-27T04:46:24.211Z,98114.63
2022-08-27T04:48:51.438Z,98114.09
2022-08-27T04:51:18.947Z,98103.31
2022-08-27T04:53:45.591Z,98114.84
2022-08-27T04:56:17.587Z,98118.25
2022-08-27T04:58:44.419Z,98119.28
2022-08-27T05:01:23.262Z,98126.38
2022-08-27T05:03:50.161Z,98123.34
2022-08-27T05:06:17.643Z,98123.13
2022-08-27T05:08:44.992Z,98122.91
2022-08-27T05:11:15.213Z,98132.09
2022-08-27T05:13:46.472Z,98122.50
2022-08-27T05:16:22.174Z,98133.16
2022-08-27T05:18:50.592Z,98127.50
2022-08-27T05:21:22.896Z,98126.22
2022-08-27T05:23:50.381Z,98129.97
2022-08-27T05:26:17.275Z,98129.63
2022-08-27T05:28:44.297Z,98129.09
2022-08-27T05:31:12.973Z,98128.16
2022-08-27T05:33:40.865Z,98125.06
2022-08-27T05:36:09.044Z,98126.38
2022-08-27T05:38:36.351Z,98119.28
2022-08-27T05:41:12.789Z,98129.44
2022-08-27T05:43:41.757Z,98126.78
2022-08-27T05:46:12.527Z,98130.59
2022-08-27T05:48:40.849Z,98131.25
2022-08-27T05:51:13.827Z,98134.03
2022-08-27T05:53:49.279Z,98134.63
2022-08-27T05:56:18.693Z,98134.31
2022-08-27T05:59:03.925Z,98135.41
2022-08-27T06:01:33.281Z,98124.63
2022-08-27T06:04:00.350Z,98131.69
2022-08-27T06:06:26.962Z,98129.38
2022-08-27T06:08:54.626Z,98131.81
2022-08-27T06:11:22.267Z,98130.22
2022-08-27T06:13:48.909Z,98136.59
2022-08-27T06:16:18.918Z,98129.78
2022-08-27T06:18:47.670Z,98135.34
2022-08-27T06:21:15.921Z,98141.75
2022-08-27T06:23:43.242Z,98138.13
2022-08-27T06:26:12.418Z,98148.72
2022-08-27T06:28:45.114Z,98142.25
2022-08-27T06:31:16.803Z,98152.59
2022-08-27T06:33:45.206Z,98157.06
2022-08-27T06:36:14.849Z,98150.25
2022-08-27T06:38:43.310Z,98163.72
2022-08-27T06:41:16.315Z,98158.28
2022-08-27T06:43:50.285Z,98159.97
2022-08-27T06:46:20.349Z,98162.66
2022-08-27T06:48:47.939Z,98169.44
2022-08-27T06:51:17.322Z,98173.69
2022-08-27T06:53:45.004Z,98167.59
2022-08-27T06:56:13.954Z,98175.19
2022-08-27T06:58:41.890Z,98179.44
2022-08-27T07:01:13.504Z,98175.09
2022-08-27T07:03:40.491Z,98183.91
2022-08-27T07:06:08.361Z,98184.94
2022-08-27T07:08:35.073Z,98187.09
2022-08-27T07:11:02.210Z,98194.50
2022-08-27T07:13:30.121Z,98187.69
2022-08-27T07:15:57.407Z,98191.31
2022-08-27T07:18:27.190Z,98192.06
2022-08-27T07:20:54.990Z,98201.66
2022-08-27T07:23:21.841Z,98194.50
2022-08-27T07:25:48.476Z,98192.63
2022-08-27T07:28:15.331Z,98189.41
2022-08-27T07:30:41.925Z,98197.59
2022-08-27T07:33:09.221Z,98196.19
2022-08-27T07:35:36.065Z,98197.69
2022-08-27T07:38:02.773Z,98197.19
2022-08-27T07:40:29.572Z,98204.06
2022-08-27T07:43:14.772Z,98201.03
2022-08-27T07:45:48.593Z,98203.19
2022-08-27T07:48:19.100Z,98214.84
2022-08-27T07:50:45.783Z,98222.00
2022-08-27T07:53:12.396Z,98210.47
2022-08-27T07:55:39.147Z,98217.72
2022-08-27T07:58:06.105Z,98216.38
2022-08-27T08:00:40.895Z,98209.13
2022-08-27T08:03:07.611Z,98214.63
2022-08-27T08:05:34.427Z,98213.78
2022-08-27T08:08:01.080Z,98222.34
2022-08-27T08:10:30.421Z,98223.81
2022-08-27T08:12:59.042Z,98223.41
2022-08-27T08:15:25.773Z,98225.47
2022-08-27T08:17:52.408Z,98239.00
2022-08-27T08:20:27.612Z,98232.16
2022-08-27T08:23:03.123Z,98238.06
2022-08-27T08:25:34.581Z,98231.66
2022-08-27T08:28:05.608Z,98237.53
2022-08-27T08:30:35.444Z,98230.50
2022-08-27T08:33:02.354Z,98234.34
2022-08-27T08:35:35.002Z,98238.44
2022-08-27T08:38:07.272Z,98239.53
2022-08-27T08:40:38.971Z,98233.34
2022-08-27T08:43:10.814Z,98226.28
2022-08-27T08:45:41.837Z,98235.06
2022-08-27T08:48:13.316Z,98229.53
2022-08-27T08:51:01.426Z,98231.72
2022-08-27T08:53:53.129Z,98229.38
2022-08-27T08:56:40.380Z,98226.81
2022-08-27T08:59:38.617Z,98230.00
2022-08-27T09:02:11.399Z,98224.47
2022-08-27T09:04:40.456Z,98223.25
2022-08-27T09:07:21.823Z,98223.06
2022-08-27T09:10:18.715Z,98224.47
2022-08-27T09:12:45.806Z,98226.38
2022-08-27T09:15:34.793Z,98229.19
2022-08-27T09:18:14.161Z,98232.72
2022-08-27T09:20:46.414Z,98224.28
2022-08-27T09:23:26.582Z,98229.81
2022-08-27T09:25:53.134Z,98231.88
2022-08-27T09:28:47.577Z,98226.63
2022-08-27T09:31:18.109Z,98226.81
2022-08-27T09:33:55.787Z,98226.75
2022-08-27T09:36:24.114Z,98226.75
2022-08-27T09:38:58.634Z,98224.50
2022-08-27T09:41:30.534Z,98224.03
2022-08-27T09:44:07.332Z,98221.16
2022-08-27T09:46:34.153Z,98215.03
2022-08-27T09:49:13.651Z,98213.72
2022-08-27T09:51:43.225Z,98224.44
2022-08-27T09:54:11.187Z,98224.16
2022-08-27T09:56:40.476Z,98225.59
2022-08-27T09:59:10.539Z,98225.66
2022-08-27T10:01:50.316Z,98222.78
2022-08-27T10:04:24.266Z,98230.38
2022-08-27T10:06:51.906Z,98223.47
2022-08-27T10:09:34.851Z,98221.47
2022-08-27T10:12:12.188Z,98212.88
2022-08-27T10:14:44.534Z,98229.91
2022-08-27T10:17:18.566Z,98228.03
2022-08-27T10:20:12.937Z,98215.03
2022-08-27T10:23:05.798Z,98219.94
2022-08-27T10:25:55.840Z,98231.06
2022-08-27T10:28:51.034Z,98226.56
2022-08-27T10:31:30.782Z,98221.91
2022-08-27T10:34:34.907Z,98221.78
2022-08-27T10:37:24.829Z,98216.56
2022-08-27T10:40:12.021Z,98225.31
2022-08-27T10:43:06.295Z,98227.25
2022-08-27T10:45:51.986Z,98227.06
2022-08-27T10:48:36.375Z,98225.34
2022-08-27T10:51:18.341Z,98227.03
2022-08-27T10:53:53.819Z,98230.03
2022-08-27T10:56:44.330Z,98226.94
2022-08-27T10:59:30.063Z,98230.16
2022-08-27T11:02:33.447Z,98231.13
2022-08-27T11:05:06.465Z,98240.72
2022-08-27T11:07:37.870Z,98242.13
2022-08-27T11:10:27.317Z,98232.81
2022-08-27T11:13:05.899Z,98241.81
2022-08-27T11:15:38.837Z,98236.53
2022-08-27T11:18:15.522Z,98225.25
2022-08-27T11:20:55.337Z,98230.84
2022-08-27T11:23:28.128Z,98238.69
2022-08-27T11:26:02.186Z,98234.19
2022-08-27T11:28:38.885Z,98237.47
2022-08-27T11:31:27.359Z,98245.63
2022-08-27T11:34:32.673Z,98236.81
2022-08-27T11:37:08.059Z,98237.78
2022-08-27T11:40:19.096Z,98239.81
2022-08-27T11:42:57.601Z,98243.25
2022-08-27T11:45:38.766Z,98227.88
2022-08-27T11:48:42.335Z,98237.47
2022-08-27T11:51:15.934Z,98228.88
2022-08-27T11:53:57.934Z,98229.00
2022-08-27T11:56:30.936Z,98228.72
2022-08-27T11:59:26.669Z,98234.09
2022-08-27T12:02:09.871Z,98233.28
2022-08-27T12:04:40.331Z,98234.06
2022-08-27T12:07:27.465Z,98221.19
2022-08-27T12:09:59.854Z,98233.28
2022-08-27T12:12:44.596Z,98230.66
2022-08-27T12:15:27.578Z,98228.91
2022-08-27T12:18:10.454Z,98228.94
2022-08-27T12:20:49.312Z,98220.22
2022-08-27T12:23:44.091Z,98213.00
2022-08-27T12:26:17.078Z,98217.28
2022-08-27T12:28:43.795Z,98227.50
2022-08-27T12:31:10.916Z,98222.66
2022-08-27T12:33:47.046Z,98226.22
2022-08-27T12:36:28.129Z,98229.13
2022-08-27T12:38:58.882Z,98231.97
2022-08-27T12:41:44.300Z,98222.03
2022-08-27T12:44:23.550Z,98230.41
2022-08-27T12:46:55.005Z,98220.38
2022-08-27T12:49:38.758Z,98224.00
2022-08-27T12:52:19.301Z,98230.03
2022-08-27T12:55:05.602Z,98238.53
2022-08-27T12:57:56.740Z,98246.28
2022-08-27T13:00:26.720Z,98251.00
2022-08-27T13:03:12.431Z,98247.59
2022-08-27T13:05:42.561Z,98252.59
2022-08-27T13:08:24.478Z,98250.81
2022-08-27T13:10:51.298Z,98239.00
2022-08-27T13:13:20.942Z,98243.88
2022-08-27T13:15:51.363Z,98243.53
2022-08-27T13:18:18.774Z,98241.00
2022-08-27T13:20:52.732Z,98251.06
2022-08-27T13:23:24.186Z,98250.81
2022-08-27T13:26:11.967Z,98250.03
2022-08-27T13:28:41.035Z,98239.97
2022-08-27T13:31:10.522Z,98245.66
2022-08-27T13:33:40.047Z,98237.88
2022-08-27T13:36:09.519Z,98245.84
2022-08-27T13:38:49.335Z,98240.72
2022-08-27T13:41:33.761Z,98237.22
2022-08-27T13:44:14.634Z,98229.31
2022-08-27T13:46:59.041Z,98234.09
2022-08-27T13:49:28.323Z,98231.13
2022-08-27T13:52:09.686Z,98230.16
2022-08-27T13:54:36.551Z,98231.00
2022-08-27T13:57:08.848Z,98228.09
2022-08-27T13:59:43.199Z,98231.94
2022-08-27T14:02:10.086Z,98228.75
2022-08-27T14:05:06.242Z,98233.03
2022-08-27T14:07:36.079Z,98234.00
2022-08-27T14:10:07.735Z,98231.22
2022-08-27T14:12:40.503Z,98245.44
2022-08-27T14:15:31.913Z,98237.09
2022-08-27T14:17:58.617Z,98230.91
2022-08-27T14:20:26.220Z,98236.25
2022-08-27T14:22:52.808Z,98240.31
2022-08-27T14:25:21.488Z,98239.34
2022-08-27T14:27:53.995Z,98243.94
2022-08-27T14:30:31.560Z,98245.63
2022-08-27T14:33:00.498Z,98240.63
2022-08-27T14:35:29.369Z,98244.53
2022-08-27T14:37:56.674Z,98247.78
2022-08-27T14:40:23.498Z,98244.16
2022-08-27T14:42:50.266Z,98243.53
2022-08-27T14:45:17.909Z,98240.09
2022-08-27T14:47:45.429Z,98244.34
2022-08-27T14:50:13.386Z,98242.00
2022-08-27T14:52:41.056Z,98242.63
2022-08-27T14:55:11.030Z,98243.69
2022-08-27T14:57:37.979Z,98246.03
2022-08-27T15:00:07.025Z,98246.44
2022-08-27T15:02:34.362Z,98243.69
2022-08-27T15:05:00.976Z,98242.63
2022-08-27T15:07:31.034Z,98247.03
2022-08-27T15:09:57.629Z,98252.72
2022-08-27T15:12:25.936Z,98253.16
2022-08-27T15:14:53.656Z,98250.66
2022-08-27T15:17:34.056Z,98259.88
2022-08-27T15:20:04.708Z,98258.63
2022-08-27T15:22:34.235Z,98263.47
2022-08-27T15:25:02.943Z,98263.47
2022-08-27T15:27:38.810Z,98265.97
2022-08-27T15:30:12.037Z,98262.31
2022-08-27T15:32:44.206Z,98262.50
2022-08-27T15:35:15.385Z,98263.97
2022-08-27T15:37:43.723Z,98265.09
2022-08-27T15:40:12.613Z,98270.00
2022-08-27T15:42:39.394Z,98266.38
2022-08-27T15:45:07.379Z,98264.31
2022-08-27T15:47:34.531Z,98271.72
2022-08-27T15:50:01.193Z,98270.00
2022-08-27T15:52:36.057Z,98275.56
2022-08-27T15:55:18.736Z,98275.34
2022-08-27T15:57:45.506Z,98274.59
2022-08-27T16:00:13.057Z,98270.22
2022-08-27T16:02:41.891Z,98268.53
2022-08-27T16:05:09.639Z,98268.41
2022-08-27T16:07:36.411Z,98265.09
2022-08-27T16:10:04.913Z,98265.09
2022-08-27T16:12:31.641Z,98273.59
2022-08-27T16:14:58.388Z,98266.75
2022-08-27T16:17:26.667Z,98266.47
2022-08-27T16:19:53.756Z,98261.88
2022-08-27T16:22:20.761Z,98264.81
2022-08-27T16:24:47.367Z,98270.38
2022-08-27T16:27:13.935Z,98274.63
2022-08-27T16:29:40.650Z,98279.00
2022-08-27T16:32:14.183Z,98278.88
2022-08-27T16:34:41.158Z,98278.88
2022-08-27T16:37:07.682Z,98281.63
2022-08-27T16:39:38.691Z,98292.03
2022-08-27T16:42:10.294Z,98283.09
2022-08-27T16:44:38.482Z,98288.22
2022-08-27T16:47:06.782Z,98284.44
2022-08-27T16:49:52.382Z,98286.28
2022-08-27T16:52:20.957Z,98288.59
2022-08-27T16:54:47.608Z,98290.91
2022-08-27T16:57:14.241Z,98283.69
2022-08-27T16:59:40.974Z,98292.31
2022-08-27T17:02:25.525Z,98299.09
2022-08-27T17:05:01.386Z,98302.31
2022-08-27T17:07:48.291Z,98293.94
2022-08-27T17:10:17.724Z,98303.94
2022-08-27T17:12:46.351Z,98296.97
2022-08-27T17:15:14.630Z,98303.44
2022-08-27T17:17:41.937Z,98305.19
2022-08-27T17:20:09.134Z,98302.53
2022-08-27T17:22:35.865Z,98302.13
2022-08-27T17:25:02.620Z,98303.91
2022-08-27T17:27:29.853Z,98315.91
2022-08-27T17:29:56.458Z,98307.66
2022-08-27T17:32:23.181Z,98313.72
2022-08-27T17:34:49.869Z,98315.63
2022-08-27T17:37:16.390Z,98325.38
2022-08-27T17:39:45.591Z,98321.28
2022-08-27T17:42:12.187Z,98329.44
2022-08-27T17:44:39.147Z,98328.47
2022-08-27T17:47:08.408Z,98337.03
2022-08-27T17:49:36.033Z,98334.84
2022-08-27T17:52:11.112Z,98338.38
2022-08-27T17:54:46.494Z,98338.75
2022-08-27T17:57:16.103Z,98351.38
2022-08-27T17:59:43.008Z,98345.19
2022-08-27T18:02:13.996Z,98355.00
2022-08-27T18:04:40.609Z,98353.28
2022-08-27T18:07:07.361Z,98362.25
2022-08-27T18:09:34.108Z,98373.56
2022-08-27T18:12:01.445Z,98370.38
2022-08-27T18:14:28.262Z,98367.56
2022-08-27T18:16:55.021Z,98374.69
2022-08-27T18:19:21.769Z,98371.84
2022-08-27T18:21:48.479Z,98382.50
2022-08-27T18:24:16.382Z,98381.16
2022-08-27T18:26:43.974Z,98373.25
2022-08-27T18:29:12.883Z,98385.22
2022-08-27T18:31:39.632Z,98379.72
2022-08-27T18:34:06.396Z,98387.88
2022-08-27T18:36:33.147Z,98387.88
2022-08-27T18:38:59.750Z,98386.34
2022-08-27T18:41:30.598Z,98393.50
2022-08-27T18:43:57.992Z,98391.50
2022-08-27T18:46:24.948Z,98401.09
2022-08-27T18:48:51.585Z,98400.06
2022-08-27T18:51:19.843Z,98403.75
2022-08-27T18:53:47.775Z,98397.97
2022-08-27T18:56:18.869Z,98399.69
2022-08-27T18:58:47.016Z,98404.34
2022-08-27T19:01:17.303Z,98406.94
2022-08-27T19:03:47.654Z,98412.78
2022-08-27T19:06:17.650Z,98405.56
2022-08-27T19:08:44.845Z,98412.59
2022-08-27T19:11:11.782Z,98409.72
2022-08-27T19:13:38.381Z,98416.22
2022-08-27T19:16:08.470Z,98411.69
2022-08-27T19:18:38.023Z,98413.94
2022-08-27T19:21:05.913Z,98417.25
2022-08-27T19:23:32.645Z,98413.84
2022-08-27T19:26:00.441Z,98419.84
2022-08-27T19:28:35.710Z,98412.78
2022-08-27T19:31:02.274Z,98419.66
2022-08-27T19:33:29.110Z,98422.25
2022-08-27T19:35:57.090Z,98417.94
2022-08-27T19:38:26.079Z,98424.22
2022-08-27T19:40:52.749Z,98425.00
2022-08-27T19:43:19.412Z,98423.44
2022-08-27T19:45:46.341Z,98421.38
2022-08-27T19:48:14.321Z,98426.72
2022-08-27T19:50:40.911Z,98428.44
2022-08-27T19:53:07.509Z,98425.16
2022-08-27T19:55:34.026Z,98427.56
2022-08-27T19:58:00.736Z,98430.13
2022-08-27T20:00:27.620Z,98428.59
2022-08-27T20:02:55.455Z,98421.38
2022-08-27T20:05:23.033Z,98428.44
2022-08-27T20:07:53.090Z,98434.84
2022-08-27T20:10:31.471Z,98426.19
2022-08-27T20:12:59.633Z,98421.72
2022-08-27T20:15:26.433Z,98430.47
2022-08-27T20:17:53.802Z,98428.59
2022-08-27T20:20:23.526Z,98424.03
2022-08-27T20:22:50.573Z,98419.06
2022-08-27T20:25:18.212Z,98421.53
2022-08-27T20:27:44.848Z,98432.03
2022-08-27T20:30:13.444Z,98434.31
2022-08-27T20:32:40.385Z,98432.03
2022-08-27T20:35:08.826Z,98438.31
2022-08-27T20:37:40.094Z,98426.09
2022-08-27T20:40:12.003Z,98433.16
2022-08-27T20:42:39.212Z,98432.09
2022-08-27T20:45:11.181Z,98443.44
2022-08-27T20:47:39.047Z,98431.19
2022-08-27T20:50:06.129Z,98438.66
2022-08-27T20:52:32.850Z,98442.84
2022-08-27T20:54:59.407Z,98442.09
2022-08-27T20:57:26.017Z,98440.28
2022-08-27T21:00:11.163Z,98437.91
2022-08-27T21:02:38.002Z,98438.75
2022-08-27T21:05:08.753Z,98432.47
2022-08-27T21:07:35.320Z,98443.03
2022-08-27T21:10:02.129Z,98440.47
2022-08-27T21:12:31.517Z,98436.09
2022-08-27T21:14:58.972Z,98440.63
2022-08-27T21:17:28.081Z,98442.53
2022-08-27T21:19:55.346Z,98438.16
2022-08-27T21:22:23.376Z,98436.53
2022-08-27T21:24:50.817Z,98442.72
2022-08-27T21:27:19.849Z,98428.34
2022-08-27T21:29:46.711Z,98436.53
2022-08-27T21:32:14.409Z,98433.09
2022-08-27T21:34:44.228Z,98442.03
2022-08-27T21:37:11.933Z,98427.75
2022-08-27T21:39:39.506Z,98428.56
2022-08-27T21:42:06.904Z,98427.75
2022-08-27T21:44:34.433Z,98435.28
2022-08-27T21:47:01.830Z,98428.25
2022-08-27T21:49:29.003Z,98434.31
2022-08-27T21:51:55.794Z,98429.84
2022-08-27T21:54:23.480Z,98434.31
2022-08-27T21:56:53.355Z,98433.47
2022-08-27T21:59:20.423Z,98430.81
2022-08-27T22:01:47.142Z,98431.88
2022-08-27T22:04:14.027Z,98428.44
2022-08-27T22:06:40.711Z,98435.28
2022-08-27T22:09:07.621Z,98438.78
2022-08-27T22:11:34.905Z,98429.41
2022-08-27T22:14:01.684Z,98439.75
2022-08-27T22:16:29.338Z,98436.03
2022-08-27T22:18:57.286Z,98442.13
2022-08-27T22:21:25.065Z,98432.06
2022-08-27T22:23:52.543Z,98432.31
2022-08-27T22:26:21.134Z,98434.88
2022-08-27T22:28:47.884Z,98436.53
2022-08-27T22:31:14.761Z,98428.59
2022-08-27T22:33:41.607Z,98427.59
2022-08-27T22:36:08.627Z,98426.03
2022-08-27T22:38:35.206Z,98427.69
2022-08-27T22:41:02.677Z,98427.75
2022-08-27T22:43:29.421Z,98425.28
2022-08-27T22:45:56.163Z,98423.56
2022-08-27T22:48:22.916Z,98422.94
2022-08-27T22:50:49.555Z,98417.97
2022-08-27T22:53:16.361Z,98418.13
2022-08-27T22:55:46.766Z,98426.03
2022-08-27T22:58:16.274Z,98426.13
2022-08-27T23:00:45.309Z,98426.88
2022-08-27T23:03:19.270Z,98419.94
2022-08-27T23:05:46.021Z,98428.78
2022-08-27T23:08:13.999Z,98425.16
2022-08-27T23:10:41.976Z,98430.50
2022-08-27T23:13:09.968Z,98434.72
2022-08-27T23:15:38.635Z,98426.13
2022-08-27T23:18:05.606Z,98433.94
2022-08-27T23:20:32.547Z,98431.28
2022-08-27T23:22:59.336Z,98437.19
2022-08-27T23:25:45.608Z,98435.47
2022-08-27T23:28:15.185Z,98434.44
2022-08-27T23:30:43.875Z,98439.09
2022-08-27T23:33:10.997Z,98433.00
2022-08-27T23:35:37.683Z,98436.75
2022-08-27T23:38:04.793Z,98432.50
2022-08-27T23:40:31.680Z,98430.88
2022-08-27T23:42:58.497Z,98435.25
2022-08-27T23:45:26.168Z,98429.13
2022-08-27T23:47:53.634Z,98437.38
2022-08-27T23:50:23.091Z,98430.44
2022-08-27T23:53:00.823Z,98438.44
2022-08-27T23:55:27.570Z,98437.72
2022-08-27T23:57:57.725Z,98441.16
